createdAt,value
2018-12-21T00:00:20.333Z,65.90
2018-12-21T00:02:48.660Z,67.00
2018-12-21T00:05:16.940Z,65.50
2018-12-21T00:07:45.173Z,64.90
2018-12-21T00:10:13.441Z,66.30
2018-12-21T00:12:41.672Z,66.40
2018-12-21T00:15:09.906Z,66.10
2018-12-21T00:17:38.136Z,66.10
2018-12-21T00:20:08.159Z,66.00
2018-12-21T00:22:36.303Z,65.20
2018-12-21T00:25:04.950Z,65.50
2018-12-21T00:27:33.533Z,65.80
2018-12-21T00:30:02.024Z,65.70
2018-12-21T00:32:35.745Z,65.80
2018-12-21T00:35:09.578Z,65.80
2018-12-21T00:37:43.202Z,65.80
2018-12-21T00:40:16.992Z,65.70
2018-12-21T00:42:50.569Z,66.40
2018-12-21T00:45:23.215Z,66.40
2018-12-21T00:47:51.559Z,66.30
2018-12-21T00:50:19.815Z,66.70
2018-12-21T00:52:48.073Z,66.20
2018-12-21T00:55:16.351Z,65.40
2018-12-21T00:57:44.602Z,65.60
2018-12-21T01:00:15.282Z,65.30
2018-12-21T01:02:43.514Z,64.50
2018-12-21T01:05:11.727Z,64.20
2018-12-21T01:07:39.935Z,63.80
2018-12-21T01:10:09.153Z,64.30
2018-12-21T01:12:37.377Z,64.00
2018-12-21T01:15:05.951Z,63.50
2018-12-21T01:17:34.218Z,63.80
2018-12-21T01:20:02.491Z,63.40
2018-12-21T01:22:30.757Z,63.10
2018-12-21T01:24:58.917Z,63.70
2018-12-21T01:27:27.146Z,63.40
2018-12-21T01:29:55.391Z,62.90
2018-12-21T01:32:23.578Z,63.80
2018-12-21T01:34:51.778Z,63.50
2018-12-21T01:37:19.943Z,62.90
2018-12-21T01:39:48.240Z,62.10
2018-12-21T01:42:16.437Z,62.70
2018-12-21T01:44:44.670Z,63.20
2018-12-21T01:47:12.971Z,62.60
2018-12-21T01:49:41.190Z,62.00
2018-12-21T01:52:09.439Z,61.20
2018-12-21T01:54:37.664Z,60.70
2018-12-21T01:57:05.887Z,61.00
2018-12-21T01:59:34.153Z,60.50
2018-12-21T02:02:02.395Z,60.10
2018-12-21T02:04:30.578Z,60.60
2018-12-21T02:06:58.848Z,60.90
2018-12-21T02:09:31.452Z,60.30
2018-12-21T02:11:59.767Z,60.00
2018-12-21T02:14:27.952Z,60.90
2018-12-21T02:16:56.200Z,60.60
2018-12-21T02:19:24.423Z,60.20
2018-12-21T02:21:56.026Z,59.80
2018-12-21T02:24:23.055Z,60.30
2018-12-21T02:26:51.356Z,60.50
2018-12-21T02:29:19.578Z,60.20
2018-12-21T02:31:47.809Z,60.10
2018-12-21T02:34:15.955Z,59.50
2018-12-21T02:36:44.123Z,60.00
2018-12-21T02:39:12.499Z,59.80
2018-12-21T02:41:40.747Z,59.50
2018-12-21T02:44:08.991Z,59.50
2018-12-21T02:46:37.238Z,59.90
2018-12-21T02:49:05.450Z,60.30
2018-12-21T02:51:33.649Z,61.10
2018-12-21T02:54:02.038Z,61.60
2018-12-21T02:56:30.325Z,62.90
2018-12-21T02:58:58.641Z,63.20
2018-12-21T03:01:26.860Z,65.20
2018-12-21T03:03:55.127Z,65.20
2018-12-21T03:06:23.339Z,66.50
2018-12-21T03:08:51.655Z,67.90
2018-12-21T03:11:19.941Z,67.40
2018-12-21T03:13:48.200Z,68.10
2018-12-21T03:16:16.447Z,68.30
2018-12-21T03:18:44.719Z,69.00
2018-12-21T03:21:12.987Z,69.60
2018-12-21T03:23:41.242Z,70.30
2018-12-21T03:26:09.503Z,70.30
2018-12-21T03:28:37.714Z,69.80
2018-12-21T03:31:05.976Z,70.00
2018-12-21T03:33:34.217Z,69.10
2018-12-21T03:36:02.522Z,68.70
2018-12-21T03:38:30.764Z,67.90
2018-12-21T03:40:59.048Z,68.10
2018-12-21T03:43:27.339Z,67.00
2018-12-21T03:45:55.539Z,66.10
2018-12-21T03:48:23.755Z,67.20
2018-12-21T03:50:52.053Z,65.90
2018-12-21T03:53:20.322Z,66.20
2018-12-21T03:55:48.516Z,64.80
2018-12-21T03:58:16.724Z,65.30
2018-12-21T04:00:44.948Z,65.90
2018-12-21T04:03:13.168Z,65.60
2018-12-21T04:05:41.507Z,64.80
2018-12-21T04:08:09.660Z,64.80
2018-12-21T04:10:37.855Z,65.10
2018-12-21T04:13:06.145Z,64.50
2018-12-21T04:15:34.501Z,64.30
2018-12-21T04:18:02.785Z,63.70
2018-12-21T04:20:30.910Z,63.10
2018-12-21T04:22:59.113Z,63.60
2018-12-21T04:25:27.229Z,63.60
2018-12-21T04:27:55.401Z,63.30
2018-12-21T04:30:23.622Z,63.50
2018-12-21T04:32:51.811Z,63.90
2018-12-21T04:35:20.012Z,63.70
2018-12-21T04:37:48.247Z,64.70
2018-12-21T04:40:16.509Z,64.20
2018-12-21T04:42:44.788Z,64.40
2018-12-21T04:45:13.310Z,65.10
2018-12-21T04:47:41.479Z,64.90
2018-12-21T04:50:09.706Z,65.70
2018-12-21T04:52:43.197Z,65.60
2018-12-21T04:55:08.219Z,65.20
2018-12-21T04:57:36.347Z,65.50
2018-12-21T05:00:04.856Z,66.40
2018-12-21T05:02:33.105Z,65.80
2018-12-21T05:05:01.363Z,65.40
2018-12-21T05:07:31.039Z,65.80
2018-12-21T05:09:59.314Z,64.80
2018-12-21T05:12:27.529Z,65.10
2018-12-21T05:14:55.784Z,64.90
2018-12-21T05:17:23.993Z,64.70
2018-12-21T05:19:52.196Z,65.20
2018-12-21T05:22:20.407Z,65.10
2018-12-21T05:24:48.665Z,64.10
2018-12-21T05:27:16.917Z,63.70
2018-12-21T05:29:45.201Z,63.80
2018-12-21T05:32:13.429Z,62.80
2018-12-21T05:34:41.604Z,62.70
2018-12-21T05:37:09.828Z,62.80
2018-12-21T05:39:38.013Z,62.30
2018-12-21T05:42:06.274Z,63.30
2018-12-21T05:44:34.412Z,62.70
2018-12-21T05:47:02.738Z,63.00
2018-12-21T05:49:30.969Z,62.10
2018-12-21T05:51:59.267Z,63.10
2018-12-21T05:54:27.515Z,62.60
2018-12-21T05:56:55.795Z,62.60
2018-12-21T05:59:24.042Z,62.40
2018-12-21T06:01:52.316Z,62.90
2018-12-21T06:04:20.567Z,63.10
2018-12-21T06:06:48.853Z,63.00
2018-12-21T06:09:17.127Z,62.90
2018-12-21T06:11:45.294Z,62.10
2018-12-21T06:14:13.593Z,62.50
2018-12-21T06:16:41.838Z,62.50
2018-12-21T06:19:12.280Z,62.70
2018-12-21T06:21:40.676Z,63.20
2018-12-21T06:24:08.866Z,63.20
2018-12-21T06:26:37.095Z,63.40
2018-12-21T06:29:05.432Z,63.40
2018-12-21T06:31:33.836Z,64.00
2018-12-21T06:34:01.933Z,63.50
2018-12-21T06:36:30.154Z,63.70
2018-12-21T06:38:58.393Z,62.70
2018-12-21T06:41:26.700Z,62.40
2018-12-21T06:43:54.967Z,61.90
2018-12-21T06:46:23.195Z,61.60
2018-12-21T06:48:52.422Z,61.60
2018-12-21T06:51:20.658Z,60.40
2018-12-21T06:53:48.914Z,60.40
2018-12-21T06:56:17.176Z,59.40
2018-12-21T06:58:45.414Z,59.00
2018-12-21T07:01:13.633Z,58.60
2018-12-21T07:03:41.806Z,59.20
2018-12-21T07:06:10.063Z,58.50
2018-12-21T07:08:38.298Z,57.50
2018-12-21T07:11:09.017Z,58.30
2018-12-21T07:13:37.237Z,58.00
2018-12-21T07:16:05.445Z,57.80
2018-12-21T07:18:33.533Z,57.40
2018-12-21T07:21:01.736Z,57.60
2018-12-21T07:23:29.932Z,57.80
2018-12-21T07:25:58.098Z,57.30
2018-12-21T07:28:26.334Z,57.60
2018-12-21T07:30:54.652Z,57.30
2018-12-21T07:33:22.807Z,57.70
2018-12-21T07:35:51.046Z,58.00
2018-12-21T07:38:19.299Z,57.40
2018-12-21T07:40:47.544Z,57.20
2018-12-21T07:43:15.754Z,57.50
2018-12-21T07:45:43.972Z,57.50
2018-12-21T07:48:12.327Z,57.40
2018-12-21T07:50:40.585Z,56.90
2018-12-21T07:53:08.803Z,56.90
2018-12-21T07:55:37.019Z,56.90
2018-12-21T07:58:05.351Z,57.70
2018-12-21T08:00:33.579Z,57.30
2018-12-21T08:03:01.891Z,56.30
2018-12-21T08:05:30.105Z,56.90
2018-12-21T08:07:58.310Z,56.90
2018-12-21T08:10:26.581Z,56.90
2018-12-21T08:12:54.810Z,56.40
2018-12-21T08:15:23.078Z,55.90
2018-12-21T08:17:51.407Z,55.90
2018-12-21T08:20:19.635Z,55.40
2018-12-21T08:22:47.779Z,54.50
2018-12-21T08:25:16.030Z,54.30
2018-12-21T08:27:44.300Z,54.20
2018-12-21T08:30:12.504Z,54.40
2018-12-21T08:32:40.724Z,54.00
2018-12-21T08:35:08.887Z,53.30
2018-12-21T08:37:37.167Z,52.80
2018-12-21T08:40:07.424Z,52.70
2018-12-21T08:42:35.724Z,52.80
2018-12-21T08:45:05.010Z,53.40
2018-12-21T08:47:33.263Z,52.50
2018-12-21T08:50:01.561Z,51.70
2018-12-21T08:52:29.912Z,51.40
2018-12-21T08:54:58.152Z,51.10
2018-12-21T08:57:26.358Z,51.80
2018-12-21T08:59:54.578Z,51.00
2018-12-21T09:02:22.813Z,52.10
2018-12-21T09:04:51.056Z,51.30
2018-12-21T09:07:19.215Z,52.30
2018-12-21T09:09:47.544Z,51.50
2018-12-21T09:12:15.756Z,51.20
2018-12-21T09:14:44.056Z,50.90
2018-12-21T09:17:12.339Z,50.20
2018-12-21T09:19:40.608Z,50.90
2018-12-21T09:22:08.863Z,50.70
2018-12-21T09:24:37.066Z,50.50
2018-12-21T09:27:05.282Z,50.10
2018-12-21T09:29:33.478Z,50.10
2018-12-21T09:32:05.167Z,50.20
2018-12-21T09:34:31.889Z,50.50
2018-12-21T09:37:00.034Z,49.50
2018-12-21T09:39:28.223Z,49.80
2018-12-21T09:41:56.500Z,50.70
2018-12-21T09:44:24.660Z,50.10
2018-12-21T09:46:52.848Z,50.30
2018-12-21T09:49:21.133Z,49.50
2018-12-21T09:51:49.364Z,49.50
2018-12-21T09:54:17.626Z,47.90
2018-12-21T09:56:45.866Z,48.90
2018-12-21T09:59:14.019Z,48.80
2018-12-21T10:01:42.247Z,48.20
2018-12-21T10:04:10.427Z,48.60
2018-12-21T10:06:38.644Z,47.90
2018-12-21T10:09:07.550Z,48.30
2018-12-21T10:11:35.784Z,47.30
2018-12-21T10:14:04.061Z,48.00
2018-12-21T10:16:32.429Z,48.10
2018-12-21T10:19:00.674Z,49.00
2018-12-21T10:21:28.887Z,50.30
2018-12-21T10:23:57.137Z,51.00
2018-12-21T10:26:25.344Z,51.50
2018-12-21T10:28:53.507Z,53.90
2018-12-21T10:31:22.033Z,53.30
2018-12-21T10:33:50.192Z,52.20
2018-12-21T10:36:18.488Z,51.60
2018-12-21T10:38:46.823Z,51.60
2018-12-21T10:41:15.193Z,51.30
2018-12-21T10:43:43.468Z,54.00
2018-12-21T10:46:12.545Z,57.90
2018-12-21T10:48:40.891Z,63.00
2018-12-21T10:51:09.453Z,70.10
2018-12-21T10:53:39.383Z,73.40
2018-12-21T10:56:08.094Z,79.70
2018-12-21T10:58:36.412Z,83.20
2018-12-21T11:01:05.495Z,86.70
2018-12-21T11:03:33.931Z,89.30
2018-12-21T11:06:02.288Z,90.80
2018-12-21T11:08:30.749Z,92.50
2018-12-21T11:10:59.048Z,92.60
2018-12-21T11:13:28.537Z,94.60
2018-12-21T11:15:56.950Z,95.50
2018-12-21T11:18:25.379Z,95.00
2018-12-21T11:20:53.688Z,95.80
2018-12-21T11:23:22.029Z,96.40
2018-12-21T11:25:50.454Z,97.40
2018-12-21T11:28:25.331Z,98.70
2018-12-21T11:30:49.807Z,99.70
2018-12-21T11:33:18.157Z,99.90
2018-12-21T11:35:46.697Z,99.90
2018-12-21T11:38:14.960Z,99.90
2018-12-21T11:40:43.161Z,99.90
2018-12-21T11:43:11.475Z,99.40
2018-12-21T11:45:39.791Z,99.10
2018-12-21T11:48:09.025Z,98.20
2018-12-21T11:50:37.587Z,95.40
2018-12-21T11:53:07.610Z,94.90
2018-12-21T11:55:35.903Z,92.70
2018-12-21T11:58:10.880Z,92.40
2018-12-21T12:00:39.121Z,92.00
2018-12-21T12:03:08.598Z,89.90
2018-12-21T12:05:37.231Z,89.40
2018-12-21T12:08:05.628Z,91.70
2018-12-21T12:10:34.001Z,91.60
2018-12-21T12:13:02.896Z,89.70
2018-12-21T12:15:31.219Z,89.60
2018-12-21T12:17:59.438Z,89.50
2018-12-21T12:20:27.782Z,87.60
2018-12-21T12:22:56.135Z,91.10
2018-12-21T12:25:24.455Z,89.00
2018-12-21T12:27:52.800Z,90.70
2018-12-21T12:30:21.148Z,91.70
2018-12-21T12:32:49.526Z,92.20
2018-12-21T12:35:17.889Z,91.00
2018-12-21T12:37:47.460Z,92.30
2018-12-21T12:40:15.808Z,93.40
2018-12-21T12:42:44.167Z,92.90
2018-12-21T12:45:13.984Z,92.80
2018-12-21T12:47:42.332Z,92.30
2018-12-21T12:50:11.298Z,91.80
2018-12-21T12:52:39.637Z,91.50
2018-12-21T12:55:07.913Z,90.80
2018-12-21T12:57:36.298Z,90.40
2018-12-21T13:00:06.075Z,89.60
2018-12-21T13:02:34.415Z,91.60
2018-12-21T13:05:02.790Z,91.70
2018-12-21T13:07:36.935Z,92.10
2018-12-21T13:10:07.972Z,92.90
2018-12-21T13:12:36.921Z,92.80
2018-12-21T13:15:08.003Z,93.80
2018-12-21T13:17:36.502Z,94.50
2018-12-21T13:20:05.832Z,94.40
2018-12-21T13:22:36.796Z,94.90
2018-12-21T13:25:11.340Z,95.10
2018-12-21T13:27:35.973Z,95.90
2018-12-21T13:30:08.280Z,97.60
2018-12-21T13:32:36.472Z,96.90
2018-12-21T13:35:05.172Z,97.40
2018-12-21T13:37:33.369Z,98.70
2018-12-21T13:40:01.742Z,98.00
2018-12-21T13:42:29.974Z,98.30
2018-12-21T13:44:58.215Z,98.60
2018-12-21T13:47:26.441Z,99.00
2018-12-21T13:49:54.696Z,99.50
2018-12-21T13:52:22.967Z,99.80
2018-12-21T13:54:51.278Z,99.90
2018-12-21T13:57:19.521Z,99.90
2018-12-21T13:59:47.927Z,99.50
2018-12-21T14:02:16.171Z,99.30
2018-12-21T14:04:44.319Z,99.30
2018-12-21T14:07:12.546Z,99.00
2018-12-21T14:09:40.806Z,97.50
2018-12-21T14:12:09.023Z,98.60
2018-12-21T14:14:37.264Z,97.90
2018-12-21T14:17:05.526Z,98.10
2018-12-21T14:19:33.699Z,97.70
2018-12-21T14:22:02.030Z,98.10
2018-12-21T14:24:30.335Z,97.70
2018-12-21T14:26:58.598Z,97.30
2018-12-21T14:29:28.571Z,98.30
2018-12-21T14:32:16.257Z,98.10
2018-12-21T14:34:44.894Z,97.40
2018-12-21T14:37:13.564Z,98.50
2018-12-21T14:39:42.143Z,98.30
2018-12-21T14:42:10.541Z,99.20
2018-12-21T14:44:38.770Z,98.30
2018-12-21T14:47:07.074Z,98.40
2018-12-21T14:49:35.349Z,99.10
2018-12-21T14:52:04.098Z,99.40
2018-12-21T14:54:33.193Z,99.90
2018-12-21T14:57:01.528Z,99.90
2018-12-21T14:59:29.984Z,99.90
2018-12-21T15:01:58.505Z,99.90
2018-12-21T15:04:26.898Z,99.90
2018-12-21T15:06:56.158Z,99.90
2018-12-21T15:09:24.556Z,99.90
2018-12-21T15:11:53.400Z,99.90
2018-12-21T15:14:21.645Z,99.90
2018-12-21T15:16:50.428Z,99.90
2018-12-21T15:19:18.720Z,99.90
2018-12-21T15:21:49.040Z,99.90
2018-12-21T15:27:04.800Z,99.90
2018-12-21T15:29:34.765Z,99.90
2018-12-21T15:34:47.003Z,98.80
2018-12-21T15:37:15.752Z,97.00
2018-12-21T15:39:44.223Z,98.70
2018-12-21T15:42:13.165Z,99.30
2018-12-21T15:44:41.529Z,99.40
2018-12-21T15:47:10.144Z,99.80
2018-12-21T15:49:38.535Z,99.90
2018-12-21T15:52:07.120Z,99.90
2018-12-21T15:54:35.527Z,99.90
2018-12-21T15:57:04.259Z,99.90
2018-12-21T15:59:32.806Z,99.90
2018-12-21T16:02:03.695Z,99.90
2018-12-21T16:04:34.347Z,99.90
2018-12-21T16:07:03.156Z,99.80
2018-12-21T16:09:31.744Z,99.90
2018-12-21T16:12:00.459Z,99.90
2018-12-21T16:14:34.201Z,99.70
2018-12-21T16:16:59.348Z,99.90
2018-12-21T16:19:27.900Z,99.80
2018-12-21T16:21:58.250Z,99.90
2018-12-21T16:24:26.672Z,98.40
2018-12-21T16:26:55.365Z,97.90
2018-12-21T16:29:23.827Z,97.90
2018-12-21T16:31:52.116Z,97.70
2018-12-21T16:34:20.698Z,95.40
2018-12-21T16:36:49.028Z,93.70
2018-12-21T16:39:18.260Z,93.40
2018-12-21T16:41:46.696Z,93.80
2018-12-21T16:44:14.931Z,93.90
2018-12-21T16:46:43.310Z,92.80
2018-12-21T16:49:11.575Z,94.20
2018-12-21T16:51:39.895Z,93.30
2018-12-21T16:54:08.268Z,92.80
2018-12-21T16:56:36.639Z,93.10
2018-12-21T16:59:04.914Z,92.50
2018-12-21T17:01:33.270Z,90.70
2018-12-21T17:04:01.646Z,91.50
2018-12-21T17:06:30.199Z,90.20
2018-12-21T17:08:58.431Z,89.40
2018-12-21T17:11:26.880Z,90.60
2018-12-21T17:13:55.174Z,92.60
2018-12-21T17:16:23.526Z,93.40
2018-12-21T17:18:52.076Z,96.40
2018-12-21T17:21:20.365Z,97.00
2018-12-21T17:23:48.623Z,98.20
2018-12-21T17:26:21.168Z,99.10
2018-12-21T17:28:47.266Z,99.90
2018-12-21T17:31:15.540Z,99.90
2018-12-21T17:33:44.024Z,99.90
2018-12-21T17:36:12.425Z,99.90
2018-12-21T17:38:40.707Z,99.90
2018-12-21T17:41:08.948Z,99.90
2018-12-21T17:43:37.303Z,99.90
2018-12-21T17:46:05.726Z,99.90
2018-12-21T17:48:34.371Z,99.90
2018-12-21T17:51:02.591Z,99.90
2018-12-21T17:53:31.007Z,99.90
2018-12-21T17:55:59.478Z,99.90
2018-12-21T17:58:27.855Z,99.90
2018-12-21T18:00:56.112Z,99.00
2018-12-21T18:03:37.587Z,95.20
2018-12-21T18:06:05.960Z,96.40
2018-12-21T18:08:34.135Z,95.00
2018-12-21T18:11:03.984Z,91.30
2018-12-21T18:13:36.234Z,90.50
2018-12-21T18:16:04.648Z,88.30
2018-12-21T18:18:32.986Z,86.50
2018-12-21T18:21:04.501Z,88.10
2018-12-21T18:23:36.861Z,87.40
2018-12-21T18:26:05.294Z,87.90
2018-12-21T18:28:34.533Z,87.40
2018-12-21T18:31:33.899Z,86.60
2018-12-21T18:34:08.687Z,85.80
2018-12-21T18:36:37.615Z,87.20
2018-12-21T18:39:15.959Z,84.70
2018-12-21T18:41:44.669Z,85.80
2018-12-21T18:44:13.041Z,84.30
2018-12-21T18:46:41.371Z,85.10
2018-12-21T18:49:09.754Z,84.20
2018-12-21T18:51:40.459Z,83.50
2018-12-21T18:54:08.997Z,80.10
2018-12-21T18:56:47.355Z,83.40
2018-12-21T18:59:15.974Z,79.90
2018-12-21T19:01:44.359Z,81.90
2018-12-21T19:04:12.779Z,81.60
2018-12-21T19:06:41.213Z,81.40
2018-12-21T19:09:09.590Z,78.60
2018-12-21T19:11:37.764Z,77.60
2018-12-21T19:14:06.323Z,79.30
2018-12-21T19:16:34.654Z,78.80
2018-12-21T19:19:03.092Z,77.80
2018-12-21T19:21:31.405Z,76.60
2018-12-21T19:23:59.798Z,77.70
2018-12-21T19:26:28.128Z,77.10
2018-12-21T19:28:56.472Z,77.50
2018-12-21T19:31:24.916Z,76.20
2018-12-21T19:33:53.306Z,76.80
2018-12-21T19:36:21.646Z,77.60
2018-12-21T19:38:49.996Z,79.40
2018-12-21T19:41:18.254Z,77.50
2018-12-21T19:43:46.550Z,79.10
2018-12-21T19:46:14.859Z,76.10
2018-12-21T19:48:43.177Z,75.60
2018-12-21T19:51:11.510Z,74.00
2018-12-21T19:53:39.836Z,74.40
2018-12-21T19:56:17.635Z,72.50
2018-12-21T19:58:46.005Z,73.90
2018-12-21T20:01:14.387Z,71.70
2018-12-21T20:03:42.638Z,72.30
2018-12-21T20:06:10.972Z,69.40
2018-12-21T20:08:39.491Z,71.60
2018-12-21T20:11:08.106Z,69.90
2018-12-21T20:13:36.423Z,69.50
2018-12-21T20:16:04.813Z,69.20
2018-12-21T20:18:33.078Z,69.50
2018-12-21T20:21:01.847Z,63.80
2018-12-21T20:23:30.369Z,61.30
2018-12-21T20:25:58.630Z,61.00
2018-12-21T20:28:26.972Z,60.70
2018-12-21T20:30:55.264Z,57.90
2018-12-21T20:33:23.620Z,55.90
2018-12-21T20:35:51.904Z,56.40
2018-12-21T20:38:21.444Z,56.90
2018-12-21T20:40:50.164Z,57.40
2018-12-21T20:43:18.574Z,56.30
2018-12-21T20:45:46.850Z,57.30
2018-12-21T20:48:15.224Z,58.80
2018-12-21T20:50:43.557Z,58.50
2018-12-21T20:53:11.770Z,59.70
2018-12-21T20:55:40.078Z,61.00
2018-12-21T20:58:16.237Z,60.10
2018-12-21T21:00:44.535Z,57.90
2018-12-21T21:03:12.858Z,57.40
2018-12-21T21:05:41.140Z,59.60
2018-12-21T21:08:09.336Z,52.10
2018-12-21T21:10:37.704Z,52.20
2018-12-21T21:13:05.963Z,50.40
2018-12-21T21:15:34.967Z,52.40
2018-12-21T21:18:03.236Z,49.60
2018-12-21T21:20:32.809Z,50.40
2018-12-21T21:23:01.092Z,52.90
2018-12-21T21:25:29.295Z,53.70
2018-12-21T21:27:57.524Z,53.90
2018-12-21T21:30:27.065Z,56.80
2018-12-21T21:32:55.280Z,57.50
2018-12-21T21:35:23.517Z,58.40
2018-12-21T21:37:51.783Z,57.90
2018-12-21T21:40:19.916Z,59.10
2018-12-21T21:42:57.203Z,60.00
2018-12-21T21:45:19.226Z,59.10
2018-12-21T21:47:47.370Z,57.90
2018-12-21T21:50:15.621Z,56.80
2018-12-21T21:52:43.952Z,57.10
2018-12-21T21:55:12.206Z,57.40
2018-12-21T21:57:40.608Z,58.30
2018-12-21T22:00:11.782Z,59.30
2018-12-21T22:02:40.099Z,62.30
2018-12-21T22:05:08.401Z,64.10
2018-12-21T22:07:36.776Z,65.70
2018-12-21T22:10:07.459Z,65.90
2018-12-21T22:12:35.727Z,67.20
2018-12-21T22:15:10.840Z,67.80
2018-12-21T22:17:39.151Z,68.00
2018-12-21T22:20:09.999Z,66.20
2018-12-21T22:22:38.229Z,65.00
2018-12-21T22:25:06.509Z,62.70
2018-12-21T22:27:34.681Z,62.90
2018-12-21T22:30:03.075Z,61.60
2018-12-21T22:32:31.279Z,60.30
2018-12-21T22:34:59.551Z,60.20
2018-12-21T22:37:27.811Z,57.80
2018-12-21T22:39:56.094Z,55.90
2018-12-21T22:42:24.338Z,55.90
2018-12-21T22:44:52.561Z,53.70
2018-12-21T22:47:20.855Z,53.30
2018-12-21T22:49:49.010Z,52.40
2018-12-21T22:52:17.305Z,51.90
2018-12-21T22:54:45.523Z,53.00
2018-12-21T22:57:13.837Z,52.00
2018-12-21T22:59:42.043Z,51.50
2018-12-21T23:02:10.251Z,51.10
2018-12-21T23:04:38.543Z,51.00
2018-12-21T23:07:06.691Z,50.70
2018-12-21T23:09:34.912Z,51.40
2018-12-21T23:12:03.229Z,51.60
2018-12-21T23:14:31.664Z,51.90
2018-12-21T23:16:59.883Z,52.50
2018-12-21T23:19:28.177Z,53.20
2018-12-21T23:21:56.416Z,51.90
2018-12-21T23:24:24.735Z,49.50
2018-12-21T23:26:52.919Z,50.10
2018-12-21T23:29:21.101Z,49.80
2018-12-21T23:31:49.342Z,50.00
2018-12-21T23:34:17.580Z,50.30
2018-12-21T23:36:45.750Z,49.90
2018-12-21T23:39:13.944Z,49.80
2018-12-21T23:41:42.130Z,50.10
2018-12-21T23:44:10.370Z,50.40
2018-12-21T23:46:38.607Z,51.10
2018-12-21T23:49:06.867Z,50.90
2018-12-21T23:51:35.144Z,52.00
2018-12-21T23:54:03.376Z,49.70
2018-12-21T23:56:31.647Z,47.70
2018-12-21T23:58:59.891Z,45.00
